Time;durP1;ratioP1;P1;durP2;ratioP2;P2;SDS_P1;SDS_P2;PMS_P1;PMS_P2;Temp;Humidity;BMP_temperature;BMP_pressure;BME280_temperature;BME280_humidity;BME280_pressure;Samples;Min_cycle;Max_cycle;Signal;HPM_P1;HPM_P2
2021/11/26 00:01:13;;;;;;;12.77;7.67;;;3.90;99.90;3.70;99536.00;;;;4998317;28;82611;-64
2021/11/26 00:03:39;;;;;;;13.20;7.77;;;3.90;99.90;3.70;99533.00;;;;4999628;27;83799;-64
2021/11/26 00:06:05;;;;;;;13.33;8.17;;;4.00;99.90;3.70;99525.00;;;;4998147;27;83962;-65
2021/11/26 00:08:30;;;;;;;12.63;7.87;;;3.90;99.90;3.70;99529.00;;;;4998988;27;81977;-63
2021/11/26 00:10:56;;;;;;;13.67;8.37;;;3.80;99.90;3.70;99536.00;;;;4996567;28;111995;-64
2021/11/26 00:13:28;;;;;;;12.40;7.57;;;3.90;99.90;3.70;99526.00;;;;4997274;27;112978;-64
2021/11/26 00:15:58;;;;;;;11.50;7.87;;;3.90;99.90;3.70;99524.00;;;;4997608;27;83551;-64
2021/11/26 00:18:25;;;;;;;12.90;8.10;;;3.90;99.90;3.70;99529.00;;;;5000512;27;82890;-63
2021/11/26 00:20:50;;;;;;;13.30;7.43;;;3.80;99.90;3.70;99533.00;;;;5001336;28;82895;-64
2021/11/26 00:23:16;;;;;;;12.97;7.57;;;4.50;99.90;3.70;99526.00;;;;5006227;27;82787;-63
2021/11/26 00:25:42;;;;;;;13.17;8.27;;;3.90;99.90;3.70;99516.00;;;;5021532;27;82818;-64
2021/11/26 00:28:08;;;;;;;10.77;6.87;;;3.90;99.90;3.70;99511.00;;;;5020991;27;108883;-63
2021/11/26 00:30:34;;;;;;;12.20;8.90;;;3.90;99.90;3.70;99527.00;;;;5021269;27;83590;-63
2021/11/26 00:33:01;;;;;;;14.27;7.87;;;3.90;99.90;3.70;99514.00;;;;5020716;27;112180;-63
2021/11/26 00:35:27;;;;;;;12.23;7.50;;;3.90;99.90;3.70;99509.00;;;;5020111;27;82931;-63
2021/11/26 00:37:52;;;;;;;15.03;7.63;;;3.80;99.90;3.70;99511.00;;;;5022107;27;82529;-63
2021/11/26 00:40:19;;;;;;;12.60;8.83;;;3.90;99.90;3.70;99506.00;;;;5019939;27;107324;-64
2021/11/26 00:42:44;;;;;;;14.17;8.80;;;4.30;99.90;3.70;99506.00;;;;5019416;27;84638;-63
2021/11/26 00:45:13;;;;;;;10.60;8.17;;;3.90;99.90;3.70;99496.00;;;;5005434;27;82790;-64
2021/11/26 00:47:41;;;;;;;11.00;7.90;;;3.90;99.90;3.70;99498.00;;;;5000689;27;93229;-64
2021/11/26 00:50:08;;;;;;;16.73;9.53;;;3.80;99.90;3.70;99508.00;;;;5001637;28;82994;-63
2021/11/26 00:52:33;;;;;;;13.77;8.60;;;3.80;99.90;3.70;99504.00;;;;5018081;27;83928;-64
2021/11/26 00:54:59;;;;;;;11.80;7.03;;;3.80;99.90;3.70;99494.00;;;;5020089;27;111943;-64
2021/11/26 00:57:25;;;;;;;12.77;8.27;;;3.90;99.90;3.70;99491.00;;;;5020318;27;110278;-63
2021/11/26 00:59:50;;;;;;;12.57;8.77;;;3.90;99.90;3.70;99493.00;;;;5021410;27;83385;-64
2021/11/26 01:02:16;;;;;;;15.83;9.87;;;3.90;99.90;3.70;99490.00;;;;5020109;27;112069;-64
2021/11/26 01:04:42;;;;;;;14.60;7.27;;;3.80;99.90;3.70;99479.00;;;;5017355;27;111594;-64
2021/11/26 01:07:08;;;;;;;12.10;7.87;;;3.90;99.90;3.70;99482.00;;;;5020568;27;82536;-64
2021/11/26 01:09:34;;;;;;;10.67;7.80;;;3.90;99.90;3.70;99471.00;;;;5020794;27;83093;-63
2021/11/26 01:12:00;;;;;;;12.53;7.37;;;3.90;99.90;3.70;99467.00;;;;5008683;27;113164;-64
2021/11/26 01:14:26;;;;;;;14.77;8.60;;;3.90;99.90;3.70;99475.00;;;;5000974;27;82885;-64
2021/11/26 01:16:53;;;;;;;11.60;7.97;;;3.90;99.90;3.70;99474.00;;;;5000608;27;82645;-63
2021/11/26 01:19:20;;;;;;;11.33;7.57;;;3.90;99.90;3.70;99471.00;;;;5013427;27;83029;-64
2021/11/26 01:21:46;;;;;;;12.87;8.97;;;3.80;99.90;3.70;99467.00;;;;5021213;27;83559;-64
2021/11/26 01:24:12;;;;;;;11.63;7.97;;;3.80;99.90;3.70;99456.00;;;;5020687;27;90135;-65
2021/11/26 01:26:38;;;;;;;13.17;8.03;;;3.80;99.90;3.70;99455.00;;;;5020491;27;95746;-64
2021/11/26 01:29:03;;;;;;;12.00;6.73;;;3.90;99.90;3.70;99453.00;;;;5019697;27;83671;-63
2021/11/26 01:31:29;;;;;;;12.60;8.07;;;3.90;99.90;3.70;99445.00;;;;5019104;27;113538;-63
2021/11/26 01:33:55;;;;;;;14.83;8.73;;;3.90;99.90;3.70;99451.00;;;;5020003;27;82575;-64
2021/11/26 01:36:23;;;;;;;15.03;8.07;;;3.90;99.90;3.70;99448.00;;;;5018759;27;82800;-63
2021/11/26 01:38:49;;;;;;;12.40;7.93;;;3.90;99.90;3.70;99446.00;;;;5020861;27;82875;-65
2021/11/26 01:41:14;;;;;;;13.63;7.43;;;3.90;99.90;3.70;99439.00;;;;5019981;27;89427;-63
2021/11/26 01:43:40;;;;;;;14.03;7.57;;;3.80;99.90;3.70;99438.00;;;;5019354;27;110555;-64
2021/11/26 01:46:09;;;;;;;12.90;8.10;;;3.90;99.90;3.70;99440.00;;;;5013826;27;81564;-64
2021/11/26 01:48:41;;;;;;;15.17;8.80;;;3.90;99.90;3.70;99434.00;;;;4999513;28;83592;-64
2021/11/26 01:51:09;;;;;;;11.87;8.37;;;3.90;99.90;3.70;99440.00;;;;4999840;27;82995;-64
2021/11/26 01:53:36;;;;;;;10.97;8.13;;;3.90;99.90;3.70;99441.00;;;;5000762;27;83610;-63
2021/11/26 01:56:02;;;;;;;13.47;8.03;;;3.90;99.90;3.70;99434.00;;;;5000088;27;82567;-64
2021/11/26 01:58:28;;;;;;;15.50;8.73;;;3.80;99.90;3.70;99419.00;;;;5008898;27;98787;-64
2021/11/26 02:00:55;;;;;;;11.27;7.67;;;3.90;99.90;3.70;99427.00;;;;5018420;27;109931;-64
2021/11/26 02:03:21;;;;;;;10.10;7.50;;;3.90;99.90;3.70;99426.00;;;;5019850;27;82518;-64
2021/11/26 02:05:47;;;;;;;12.20;7.47;;;3.80;99.90;3.70;99423.00;;;;5018893;27;109108;-64
2021/11/26 02:08:13;;;;;;;10.93;8.20;;;3.90;99.90;3.70;99424.00;;;;5018772;27;113610;-64
2021/11/26 02:10:41;;;;;;;12.73;8.27;;;3.80;99.90;3.70;99409.00;;;;5018267;27;113891;-63
2021/11/26 02:13:07;;;;;;;15.20;8.83;;;3.90;99.90;3.70;99398.00;;;;5020206;27;82822;-63
2021/11/26 02:15:41;;;;;;;13.20;7.70;;;3.90;99.90;3.70;99409.00;;;;5001112;27;82783;-64
2021/11/26 02:18:07;;;;;;;10.47;8.53;;;3.80;99.90;3.70;99412.00;;;;4999480;28;84726;-64
2021/11/26 02:20:34;;;;;;;11.47;7.57;;;3.70;99.90;3.70;99400.00;;;;5000008;28;83968;-63
2021/11/26 02:23:00;;;;;;;10.00;7.90;;;4.00;99.90;3.70;99399.00;;;;4999761;27;82872;-63
2021/11/26 02:25:27;;;;;;;11.20;8.17;;;3.80;99.90;3.70;99404.00;;;;5000326;28;82809;-63
2021/11/26 02:27:59;;;;;;;12.73;7.77;;;3.90;99.90;3.60;99393.00;;;;5013721;27;84872;-63
2021/11/26 02:30:25;;;;;;;11.47;8.53;;;3.60;99.90;3.70;99393.00;;;;5019801;27;83161;-63
2021/11/26 02:33:00;;;;;;;10.47;8.23;;;3.90;99.90;3.70;99393.00;;;;5019183;27;82548;-63
2021/11/26 02:35:28;;;;;;;12.33;8.50;;;3.80;99.90;3.60;99388.00;;;;5018698;27;82141;-63
2021/11/26 02:37:54;;;;;;;13.47;8.03;;;3.90;99.90;3.70;99391.00;;;;5019518;27;83736;-63
2021/11/26 02:40:24;;;;;;;14.23;8.10;;;3.80;99.90;3.70;99384.00;;;;5018246;27;112094;-64
2021/11/26 02:42:50;;;;;;;13.73;8.37;;;3.80;99.90;3.70;99377.00;;;;5001917;27;91759;-64
2021/11/26 02:45:18;;;;;;;10.40;7.57;;;3.80;99.90;3.70;99378.00;;;;4999297;27;82593;-64
2021/11/26 02:47:45;;;;;;;8.97;6.37;;;3.90;99.90;3.70;99373.00;;;;4999451;27;93232;-64
2021/11/26 02:50:14;;;;;;;13.87;8.20;;;3.80;99.90;3.70;99362.00;;;;4999465;27;82782;-63
2021/11/26 02:52:40;;;;;;;9.27;7.50;;;3.90;99.90;3.70;99364.00;;;;4998729;28;82753;-64
2021/11/26 02:55:10;;;;;;;12.93;7.50;;;3.80;99.90;3.70;99359.00;;;;4999823;27;82648;-64
2021/11/26 02:57:36;;;;;;;12.37;7.57;;;3.90;99.90;3.70;99356.00;;;;4999356;27;98249;-64
2021/11/26 03:00:06;;;;;;;10.83;7.13;;;3.90;99.90;3.70;99359.00;;;;4999387;28;87934;-63
2021/11/26 03:02:32;;;;;;;8.47;6.00;;;3.90;99.90;3.70;99356.00;;;;4999137;27;87564;-64
2021/11/26 03:04:58;;;;;;;13.03;7.80;;;3.90;99.90;3.70;99357.00;;;;5006961;27;83221;-64
2021/11/26 03:07:23;;;;;;;11.30;7.40;;;3.90;99.90;3.70;99358.00;;;;5014440;27;112334;-62
2021/11/26 03:09:49;;;;;;;13.50;8.10;;;3.90;99.90;3.70;99361.00;;;;5005747;27;112344;-64
2021/11/26 03:12:15;;;;;;;15.50;7.37;;;4.00;99.90;3.80;99361.00;;;;5017755;27;84279;-63
2021/11/26 03:14:41;;;;;;;10.33;6.77;;;3.90;99.90;3.80;99357.00;;;;4998589;28;93424;-64
2021/11/26 03:17:07;;;;;;;11.33;7.93;;;3.90;99.90;3.70;99353.00;;;;4997521;27;108469;-63
2021/11/26 03:19:32;;;;;;;11.53;7.00;;;4.00;99.90;3.70;99348.00;;;;4997941;27;112750;-63
2021/11/26 03:21:58;;;;;;;10.60;7.50;;;3.90;99.90;3.80;99353.00;;;;4997976;27;110319;-64
2021/11/26 03:24:24;;;;;;;12.93;7.90;;;4.00;99.90;3.70;99342.00;;;;4999438;28;82085;-64
2021/11/26 03:26:50;;;;;;;14.67;8.53;;;3.90;99.90;3.80;99344.00;;;;4999531;27;83805;-64
2021/11/26 03:29:16;;;;;;;8.77;6.60;;;4.00;99.90;3.80;99329.00;;;;4998792;27;89554;-64
2021/11/26 03:31:42;;;;;;;13.47;7.07;;;3.90;99.90;3.80;99331.00;;;;4997262;27;97139;-63
2021/11/26 03:34:08;;;;;;;12.10;6.87;;;3.90;99.90;3.80;99326.00;;;;4998824;27;109169;-63
2021/11/26 03:36:34;;;;;;;14.07;8.50;;;3.90;99.90;3.80;99325.00;;;;4999846;27;95788;-62
2021/11/26 03:39:00;;;;;;;14.90;8.53;;;3.90;99.90;3.80;99328.00;;;;5010935;27;94137;-62
2021/11/26 03:41:26;;;;;;;10.70;7.63;;;3.90;99.90;3.80;99321.00;;;;4995862;28;95813;-64
2021/11/26 03:43:52;;;;;;;14.87;7.60;;;4.00;99.90;3.80;99312.00;;;;5008618;27;82405;-64
2021/11/26 03:46:19;;;;;;;10.13;7.13;;;3.90;99.90;3.80;99318.00;;;;5017739;27;113317;-64
2021/11/26 03:48:45;;;;;;;14.30;7.90;;;3.90;99.90;3.80;99318.00;;;;4999786;27;82903;-64
2021/11/26 03:51:11;;;;;;;9.53;8.30;;;4.00;99.90;3.80;99317.00;;;;5006501;27;110397;-64
2021/11/26 03:53:37;;;;;;;12.47;8.20;;;4.00;99.90;3.80;99321.00;;;;5020496;27;107499;-64
2021/11/26 03:56:04;;;;;;;12.63;7.07;;;3.90;99.90;3.80;99321.00;;;;5022044;27;84554;-64
2021/11/26 03:58:29;;;;;;;13.43;7.47;;;4.00;99.90;3.80;99317.00;;;;5021204;27;96936;-64
2021/11/26 04:00:55;;;;;;;12.13;7.73;;;4.00;99.90;3.80;99326.00;;;;5021650;27;82583;-63
2021/11/26 04:03:21;;;;;;;12.63;7.07;;;4.00;99.90;3.90;99318.00;;;;5021348;27;92761;-62
2021/11/26 04:05:47;;;;;;;13.10;7.40;;;4.30;99.90;3.90;99316.00;;;;5009608;27;111973;-64
2021/11/26 04:08:13;;;;;;;16.63;7.77;;;4.10;99.90;3.90;99319.00;;;;4998749;27;97184;-63
2021/11/26 04:10:39;;;;;;;11.50;7.00;;;4.00;99.90;3.90;99313.00;;;;5001499;28;82656;-64
2021/11/26 04:13:05;;;;;;;10.83;7.77;;;4.00;99.90;3.90;99310.00;;;;5002104;27;81814;-64
2021/11/26 04:15:33;;;;;;;14.90;8.63;;;4.10;99.90;3.90;99306.00;;;;5001477;27;82837;-63
2021/11/26 04:18:01;;;;;;;11.03;7.90;;;4.10;99.90;3.90;99296.00;;;;4999155;27;83716;-64
2021/11/26 04:20:28;;;;;;;9.43;6.57;;;4.10;99.90;3.90;99304.00;;;;5000937;28;83627;-65
2021/11/26 04:22:54;;;;;;;12.47;7.57;;;4.10;99.90;3.90;99295.00;;;;5001159;27;94940;-64
2021/11/26 04:25:21;;;;;;;11.77;7.80;;;4.20;99.90;3.90;99283.00;;;;5001321;28;82811;-63
2021/11/26 04:27:48;;;;;;;11.93;7.23;;;4.60;99.90;3.90;99288.00;;;;5001582;27;82869;-62
2021/11/26 04:30:16;;;;;;;12.57;7.43;;;4.00;99.90;3.90;99285.00;;;;5001261;27;93468;-63
2021/11/26 04:32:41;;;;;;;10.10;7.23;;;4.10;99.90;3.80;99281.00;;;;5004651;27;82528;-63
2021/11/26 04:35:10;;;;;;;14.37;8.50;;;4.00;99.90;3.80;99270.00;;;;5019905;27;94958;-63
2021/11/26 04:37:36;;;;;;;12.17;7.73;;;4.00;99.90;3.80;99276.00;;;;5021101;27;82103;-63
2021/11/26 04:40:05;;;;;;;12.57;6.93;;;4.00;99.90;3.80;99284.00;;;;5021615;27;82693;-65
2021/11/26 04:42:31;;;;;;;12.73;7.33;;;4.10;99.90;3.80;99289.00;;;;5024041;27;82975;-63
2021/11/26 04:45:00;;;;;;;11.87;8.03;;;3.90;99.90;3.80;99275.00;;;;5019890;27;112595;-63
2021/11/26 04:47:27;;;;;;;10.40;7.67;;;3.90;99.90;3.80;99276.00;;;;5018734;27;94985;-65
2021/11/26 04:49:53;;;;;;;10.83;6.93;;;4.00;99.90;3.80;99284.00;;;;5018971;27;111110;-65
2021/11/26 04:52:19;;;;;;;11.93;7.07;;;4.00;99.90;3.80;99273.00;;;;5019459;27;108868;-64
2021/11/26 04:54:45;;;;;;;12.40;7.77;;;4.00;99.90;3.80;99267.00;;;;5020847;27;112555;-64
2021/11/26 04:57:11;;;;;;;10.20;7.03;;;3.90;99.90;3.70;99280.00;;;;5019379;27;111589;-65
2021/11/26 04:59:36;;;;;;;15.27;8.20;;;3.90;99.90;3.80;99266.00;;;;5021263;27;109533;-64
2021/11/26 05:02:02;;;;;;;10.77;7.10;;;3.90;99.90;3.80;99276.00;;;;5003880;27;107761;-64
2021/11/26 05:04:28;;;;;;;12.37;7.27;;;4.00;99.90;3.80;99272.00;;;;5000640;27;83826;-62
2021/11/26 05:06:54;;;;;;;9.80;6.60;;;4.00;99.90;3.70;99265.00;;;;5000437;27;83188;-64
2021/11/26 05:09:20;;;;;;;8.90;6.33;;;4.00;99.90;3.70;99265.00;;;;4999253;28;110497;-64
2021/11/26 05:11:46;;;;;;;11.00;7.97;;;3.90;99.90;3.70;99267.00;;;;4999921;27;86224;-64
2021/11/26 05:14:17;;;;;;;13.40;7.30;;;4.00;99.90;3.70;99255.00;;;;5018215;27;84019;-64
2021/11/26 05:16:43;;;;;;;12.83;6.87;;;3.90;99.90;3.70;99268.00;;;;5020470;27;82693;-64
2021/11/26 05:19:09;;;;;;;10.73;6.60;;;3.90;99.90;3.70;99266.00;;;;5021114;27;89186;-63
2021/11/26 05:21:35;;;;;;;9.30;6.47;;;3.90;99.90;3.70;99266.00;;;;5019656;27;107997;-63
2021/11/26 05:24:00;;;;;;;13.53;7.13;;;3.90;99.90;3.70;99258.00;;;;5019482;27;113406;-64
2021/11/26 05:26:26;;;;;;;10.53;6.10;;;3.90;99.90;3.70;99252.00;;;;5019933;27;112047;-64
2021/11/26 05:28:52;;;;;;;14.80;8.20;;;3.80;99.90;3.70;99244.00;;;;5011268;27;82829;-64
2021/11/26 05:31:20;;;;;;;13.17;7.13;;;3.90;99.90;3.70;99229.00;;;;4999682;27;103893;-63
2021/11/26 05:33:46;;;;;;;8.70;5.77;;;3.80;99.90;3.70;99231.00;;;;4999848;28;83733;-62
2021/11/26 05:36:12;;;;;;;12.00;7.23;;;3.90;99.90;3.70;99240.00;;;;5001881;27;83999;-63
2021/11/26 05:38:37;;;;;;;11.30;6.03;;;3.90;99.90;3.70;99237.00;;;;5000399;28;82730;-64
2021/11/26 05:41:03;;;;;;;11.33;7.40;;;3.90;99.90;3.70;99235.00;;;;5000616;27;82493;-62
2021/11/26 05:43:29;;;;;;;15.23;8.17;;;3.90;99.90;3.70;99239.00;;;;4999793;28;84073;-64
2021/11/26 05:45:55;;;;;;;15.20;7.30;;;3.90;99.90;3.60;99242.00;;;;5004299;27;83263;-64
2021/11/26 05:48:20;;;;;;;13.37;7.27;;;3.80;99.90;3.70;99238.00;;;;5017390;27;103702;-63
2021/11/26 05:50:46;;;;;;;9.13;6.20;;;3.80;99.90;3.60;99241.00;;;;5019551;27;82291;-63
2021/11/26 05:53:12;;;;;;;13.73;7.77;;;3.90;99.90;3.60;99232.00;;;;5020193;27;82929;-64
2021/11/26 05:55:38;;;;;;;12.23;6.87;;;3.80;99.90;3.60;99223.00;;;;5019359;27;110505;-63
2021/11/26 05:58:04;;;;;;;12.20;6.47;;;3.90;99.90;3.60;99221.00;;;;4998325;27;109288;-63
2021/11/26 06:00:32;;;;;;;11.00;7.20;;;4.30;99.90;3.60;99231.00;;;;4999941;28;82626;-62
2021/11/26 06:02:59;;;;;;;13.70;8.27;;;3.80;99.90;3.60;99213.00;;;;4999526;27;83318;-62
2021/11/26 06:05:25;;;;;;;11.60;8.10;;;3.90;99.90;3.60;99218.00;;;;4999749;27;103873;-62
2021/11/26 06:07:52;;;;;;;10.97;6.47;;;3.80;99.90;3.60;99217.00;;;;4999655;28;82795;-64
2021/11/26 06:10:18;;;;;;;9.90;6.77;;;3.80;99.90;3.60;99209.00;;;;4999101;27;108431;-62
2021/11/26 06:12:47;;;;;;;9.97;6.20;;;3.80;99.90;3.60;99211.00;;;;4998552;28;111010;-62
2021/11/26 06:15:16;;;;;;;14.37;7.87;;;3.70;99.90;3.60;99214.00;;;;4997444;27;82978;-63
2021/11/26 06:17:42;;;;;;;11.23;7.13;;;3.80;99.90;3.60;99203.00;;;;4999575;28;82677;-64
2021/11/26 06:20:10;;;;;;;11.87;7.00;;;3.80;99.90;3.60;99212.00;;;;5000415;28;82566;-63
2021/11/26 06:22:37;;;;;;;11.83;7.10;;;3.70;99.90;3.60;99205.00;;;;4998803;28;84833;-63
2021/11/26 06:25:04;;;;;;;13.53;7.63;;;3.80;99.90;3.60;99203.00;;;;5000024;28;83682;-64
2021/11/26 06:27:30;;;;;;;11.13;7.17;;;3.70;99.90;3.50;99208.00;;;;4999636;28;82682;-63
2021/11/26 06:29:56;;;;;;;15.00;6.33;;;3.70;99.90;3.50;99212.00;;;;4999847;28;109358;-64
2021/11/26 06:32:23;;;;;;;8.57;6.80;;;3.60;99.90;3.50;99199.00;;;;4996956;28;112174;-63
2021/11/26 06:34:49;;;;;;;8.17;5.63;;;3.80;99.90;3.50;99192.00;;;;4999621;28;83411;-64
2021/11/26 06:37:15;;;;;;;8.97;6.77;;;3.70;99.90;3.50;99195.00;;;;4999492;28;93495;-63
2021/11/26 06:39:41;;;;;;;12.77;7.50;;;3.70;99.90;3.50;99190.00;;;;5000539;28;82110;-64
2021/11/26 06:42:07;;;;;;;9.13;7.00;;;3.60;99.90;3.50;99184.00;;;;4999125;28;93539;-64
2021/11/26 06:44:32;;;;;;;12.23;6.67;;;3.70;99.90;3.40;99187.00;;;;4997607;28;87599;-63
2021/11/26 06:46:58;;;;;;;10.90;6.53;;;3.60;99.90;3.40;99174.00;;;;4998353;28;97443;-63
2021/11/26 06:49:24;;;;;;;8.23;5.87;;;3.60;99.90;3.40;99171.00;;;;5000032;28;82776;-64
2021/11/26 06:51:50;;;;;;;8.30;6.57;;;3.60;99.90;3.40;99171.00;;;;4997774;28;112819;-63
2021/11/26 06:54:15;;;;;;;15.37;8.20;;;3.60;99.90;3.40;99170.00;;;;4999583;28;95636;-63
2021/11/26 06:56:41;;;;;;;12.03;7.07;;;3.60;99.90;3.30;99160.00;;;;4998020;28;82540;-62
2021/11/26 06:59:07;;;;;;;12.90;7.73;;;3.50;99.90;3.30;99161.00;;;;4997282;27;108683;-62
2021/11/26 07:01:33;;;;;;;9.90;7.20;;;3.60;99.90;3.20;99161.00;;;;4995368;27;113026;-63
2021/11/26 07:03:59;;;;;;;12.83;7.43;;;3.40;99.90;3.20;99158.00;;;;4995122;27;114248;-65
2021/11/26 07:06:25;;;;;;;11.90;7.20;;;3.40;99.90;3.10;99170.00;;;;4996037;27;82553;-65
2021/11/26 07:08:51;;;;;;;12.43;7.33;;;3.30;99.90;3.10;99159.00;;;;4995475;27;97570;-64
2021/11/26 07:11:17;;;;;;;15.23;7.07;;;3.30;99.90;3.00;99165.00;;;;4995147;27;101171;-64
2021/11/26 07:13:42;;;;;;;12.93;7.67;;;3.20;99.90;3.00;99160.00;;;;4994776;27;113665;-64
2021/11/26 07:16:08;;;;;;;12.97;7.70;;;3.20;99.90;3.00;99154.00;;;;4995283;27;112067;-64
2021/11/26 07:18:34;;;;;;;10.47;7.37;;;3.20;99.90;3.00;99152.00;;;;4995940;27;82831;-64
2021/11/26 07:21:00;;;;;;;12.57;7.17;;;3.20;99.90;3.00;99166.00;;;;4995713;27;96537;-64
2021/11/26 07:23:26;;;;;;;13.03;7.97;;;3.10;99.90;3.00;99152.00;;;;4998129;27;112442;-65
2021/11/26 07:25:52;;;;;;;12.23;6.83;;;3.20;99.90;3.00;99157.00;;;;4995718;27;109276;-63
2021/11/26 07:28:19;;;;;;;14.90;8.17;;;3.20;99.90;3.00;99156.00;;;;4996549;27;107581;-64
2021/11/26 07:30:45;;;;;;;9.33;6.97;;;3.20;99.90;2.90;99135.00;;;;4999957;27;83197;-63
2021/11/26 07:33:11;;;;;;;10.13;7.33;;;3.20;99.90;2.90;99143.00;;;;4999057;27;93692;-63
2021/11/26 07:35:37;;;;;;;11.43;6.57;;;3.20;99.90;2.90;99141.00;;;;4997699;27;110888;-64
2021/11/26 07:38:02;;;;;;;10.63;7.40;;;3.20;99.90;2.90;99129.00;;;;4999328;27;82812;-64
2021/11/26 07:40:28;;;;;;;13.57;7.73;;;3.10;99.90;2.90;99127.00;;;;4998071;27;113750;-65
2021/11/26 07:42:54;;;;;;;11.17;7.17;;;3.10;99.90;2.80;99129.00;;;;4997134;27;111885;-64
2021/11/26 07:45:20;;;;;;;15.03;8.57;;;3.10;99.90;2.80;99125.00;;;;5007276;27;82745;-65
2021/11/26 07:47:45;;;;;;;13.17;9.33;;;3.00;99.90;2.80;99130.00;;;;4998886;27;82757;-62
2021/11/26 07:50:12;;;;;;;14.50;8.77;;;3.10;99.90;2.90;99124.00;;;;4999095;27;89167;-63
2021/11/26 07:52:41;;;;;;;11.23;8.20;;;3.10;99.90;2.90;99129.00;;;;5000337;27;83403;-64
2021/11/26 07:55:08;;;;;;;16.23;8.03;;;3.10;99.90;3.00;99134.00;;;;4999492;27;82824;-64
2021/11/26 07:57:35;;;;;;;11.97;8.13;;;3.20;99.90;3.00;99129.00;;;;4998571;27;82499;-64
2021/11/26 08:00:02;;;;;;;11.87;7.27;;;3.60;99.90;3.00;99132.00;;;;4998674;27;84897;-64
2021/11/26 08:02:28;;;;;;;12.17;7.57;;;3.20;99.90;3.10;99129.00;;;;5000180;27;83047;-64
2021/11/26 08:04:54;;;;;;;10.87;7.90;;;3.30;99.90;3.20;99121.00;;;;5003472;27;82748;-64
2021/11/26 08:07:19;;;;;;;12.67;7.87;;;3.30;99.90;3.20;99129.00;;;;4998589;27;108750;-62
2021/11/26 08:09:45;;;;;;;15.07;9.00;;;3.40;99.90;3.30;99122.00;;;;4998799;27;83614;-65
2021/11/26 08:12:11;;;;;;;10.87;7.50;;;3.40;99.90;3.30;99112.00;;;;4997481;27;111590;-64
2021/11/26 08:14:36;;;;;;;10.27;7.93;;;3.50;99.90;3.40;99107.00;;;;4998276;27;110013;-63
2021/11/26 08:17:02;;;;;;;11.80;8.30;;;3.60;99.90;3.40;99105.00;;;;5003454;27;109581;-63
2021/11/26 08:19:28;;;;;;;16.57;8.90;;;3.60;99.90;3.40;99110.00;;;;5000117;27;82819;-64
2021/11/26 08:21:55;;;;;;;12.67;7.23;;;3.60;99.90;3.50;99105.00;;;;5011845;27;82763;-64
2021/11/26 08:24:22;;;;;;;13.63;7.93;;;3.70;99.90;3.50;99114.00;;;;4998569;27;83605;-64
2021/11/26 08:26:48;;;;;;;10.27;6.77;;;3.70;99.90;3.50;99102.00;;;;4998838;27;85287;-63
2021/11/26 08:29:15;;;;;;;17.97;8.07;;;3.70;99.90;3.60;99108.00;;;;4999007;27;83487;-62
2021/11/26 08:31:40;;;;;;;15.60;7.80;;;3.80;99.90;3.70;99106.00;;;;4999541;27;83409;-63
2021/11/26 08:34:07;;;;;;;14.37;8.83;;;3.80;99.90;3.70;99104.00;;;;5002818;27;83964;-63
2021/11/26 08:36:34;;;;;;;12.30;8.47;;;3.80;99.90;3.70;99095.00;;;;4998357;27;90852;-63
2021/11/26 08:39:01;;;;;;;6.90;5.97;;;3.90;99.90;3.80;99096.00;;;;5002391;27;92467;-65
2021/11/26 08:41:27;;;;;;;17.23;8.13;;;3.90;99.90;3.90;99096.00;;;;4998233;27;83469;-64
2021/11/26 08:43:53;;;;;;;12.80;7.20;;;4.00;99.90;3.90;99087.00;;;;5002183;27;82575;-64
2021/11/26 08:46:18;;;;;;;12.43;7.27;;;4.00;99.90;3.90;99088.00;;;;4998157;27;82877;-62
2021/11/26 08:48:45;;;;;;;9.97;7.77;;;4.10;99.90;4.00;99088.00;;;;4996216;27;113495;-63
2021/11/26 08:51:11;;;;;;;12.23;8.27;;;4.00;99.90;4.00;99084.00;;;;5005487;27;84606;-62
2021/11/26 08:53:43;;;;;;;10.37;7.27;;;4.10;99.90;4.10;99073.00;;;;4998844;27;82970;-63
2021/11/26 08:56:09;;;;;;;11.00;6.63;;;4.20;99.90;4.10;99084.00;;;;4998555;27;82631;-63
2021/11/26 08:58:36;;;;;;;13.20;8.40;;;4.30;99.90;4.10;99078.00;;;;4998345;27;83900;-63
2021/11/26 09:01:04;;;;;;;13.93;6.87;;;4.30;99.90;4.10;99074.00;;;;4998347;27;83747;-63
2021/11/26 09:03:32;;;;;;;14.00;7.90;;;4.30;99.90;4.20;99080.00;;;;4997733;27;82849;-62
2021/11/26 09:05:58;;;;;;;10.57;7.63;;;4.30;99.90;4.20;99066.00;;;;4997835;27;88901;-63
2021/11/26 09:08:25;;;;;;;13.23;7.80;;;4.40;99.90;4.30;99071.00;;;;4997591;27;82788;-63
2021/11/26 09:10:51;;;;;;;13.80;8.20;;;4.40;99.90;4.30;99068.00;;;;4997245;27;83900;-64
2021/11/26 09:13:17;;;;;;;12.53;8.00;;;4.40;99.90;4.40;99069.00;;;;4997365;27;83589;-64
2021/11/26 09:15:44;;;;;;;10.57;7.17;;;5.10;99.90;4.50;99066.00;;;;4995718;27;82814;-64
2021/11/26 09:18:11;;;;;;;11.83;7.90;;;4.60;99.90;4.70;99062.00;;;;4997785;27;83344;-63
2021/11/26 09:20:38;;;;;;;13.07;6.60;;;4.70;99.90;4.80;99056.00;;;;4998845;27;82629;-63
2021/11/26 09:23:07;;;;;;;13.23;5.87;;;4.90;99.90;4.90;99053.00;;;;4998265;27;82765;-63
2021/11/26 09:25:35;;;;;;;11.23;6.70;;;5.00;99.90;5.00;99047.00;;;;4997762;27;82764;-65
2021/11/26 09:28:01;;;;;;;8.30;5.70;;;5.00;99.90;5.00;99043.00;;;;4998423;27;83117;-63
2021/11/26 09:30:30;;;;;;;11.43;6.40;;;5.20;99.90;5.10;99036.00;;;;4998034;27;83741;-63
2021/11/26 09:32:56;;;;;;;10.27;6.93;;;5.20;99.90;5.20;99049.00;;;;4997730;27;82785;-63
2021/11/26 09:35:22;;;;;;;14.10;8.43;;;5.30;99.90;5.20;99033.00;;;;5003448;27;90264;-64
2021/11/26 09:37:48;;;;;;;12.77;7.87;;;5.30;99.90;5.20;99030.00;;;;5002613;27;92853;-63
2021/11/26 09:40:16;;;;;;;11.47;6.63;;;5.20;99.90;5.20;99020.00;;;;5008566;27;84810;-64
2021/11/26 09:42:43;;;;;;;9.70;6.00;;;5.30;99.90;5.20;99030.00;;;;5001776;27;82549;-64
2021/11/26 09:45:13;;;;;;;14.97;6.80;;;5.40;99.90;5.20;99031.00;;;;4998827;27;83902;-64
2021/11/26 09:47:39;;;;;;;14.60;7.00;;;5.40;99.90;5.20;99030.00;;;;4999060;27;83579;-63
2021/11/26 09:50:06;;;;;;;10.43;6.93;;;5.30;99.90;5.10;99023.00;;;;4997603;27;95993;-63
2021/11/26 09:52:32;;;;;;;13.17;6.27;;;5.30;99.90;5.10;99009.00;;;;4998155;27;82689;-62
2021/11/26 09:54:57;;;;;;;10.43;6.17;;;5.30;99.90;5.10;99015.00;;;;4997225;27;108113;-62
2021/11/26 09:57:23;;;;;;;11.73;6.73;;;5.30;99.90;5.10;99020.00;;;;5002310;27;112024;-63
2021/11/26 09:59:49;;;;;;;12.30;6.73;;;5.30;99.90;5.10;99018.00;;;;4996450;27;111801;-63
2021/11/26 10:02:21;;;;;;;10.93;6.30;;;5.30;99.90;5.10;99011.00;;;;4995750;27;83752;-64
2021/11/26 10:05:04;;;;;;;9.80;6.13;;;5.30;99.90;5.10;98998.00;;;;4996837;27;82724;-63
2021/11/26 10:07:30;;;;;;;8.80;6.07;;;5.30;99.90;5.10;99000.00;;;;5002149;27;83940;-63
2021/11/26 10:10:10;;;;;;;12.73;8.17;;;5.30;99.90;5.10;99002.00;;;;5002616;27;82889;-63
2021/11/26 10:12:36;;;;;;;11.87;5.83;;;5.30;99.90;5.10;98989.00;;;;4996940;27;82695;-63
2021/11/26 10:15:03;;;;;;;9.70;6.30;;;5.30;99.90;5.10;98987.00;;;;4997352;27;89614;-64
2021/11/26 10:17:29;;;;;;;10.30;6.27;;;5.20;99.90;5.10;98988.00;;;;5003362;27;83283;-63
2021/11/26 10:20:01;;;;;;;7.60;5.57;;;5.20;99.90;5.20;98981.00;;;;4996235;27;111754;-64
2021/11/26 10:22:37;;;;;;;12.57;5.47;;;5.30;99.90;5.20;98982.00;;;;4998659;27;82710;-65
2021/11/26 10:25:19;;;;;;;11.37;6.90;;;5.30;99.90;5.20;98973.00;;;;4995026;27;82979;-63
2021/11/26 10:27:54;;;;;;;12.47;5.63;;;5.40;99.90;5.20;98956.00;;;;4996083;27;92131;-63
2021/11/26 10:30:38;;;;;;;9.53;6.13;;;5.40;99.90;5.30;98953.00;;;;4996625;27;84499;-63
2021/11/26 10:33:24;;;;;;;11.87;6.90;;;4.90;99.90;5.30;98946.00;;;;4994281;27;82757;-64
2021/11/26 10:36:00;;;;;;;8.30;5.40;;;5.40;99.90;5.30;98943.00;;;;4995899;27;82825;-64
2021/11/26 10:38:30;;;;;;;6.60;5.00;;;5.50;99.90;5.30;98944.00;;;;4996974;27;82904;-63
2021/11/26 10:41:05;;;;;;;9.30;5.77;;;5.40;99.90;5.30;98944.00;;;;4994714;27;83442;-63
2021/11/26 11:00:04;;;;;;;12.33;5.47;;;5.50;99.90;5.30;98918.00;;;;4995181;27;83625;-64
2021/11/26 11:02:43;;;;;;;10.40;5.67;;;5.50;99.90;5.30;98909.00;;;;5002615;27;82494;-63
2021/11/26 11:05:28;;;;;;;8.63;6.33;;;5.50;99.90;5.30;98912.00;;;;4997602;27;82898;-63
2021/11/26 11:07:54;;;;;;;8.70;5.70;;;5.50;99.90;5.30;98905.00;;;;5004043;27;82536;-64
2021/11/26 11:10:32;;;;;;;7.97;5.37;;;5.40;99.90;5.30;98898.00;;;;4995584;27;82707;-63
2021/11/26 11:13:11;;;;;;;12.90;6.10;;;5.40;99.90;5.30;98894.00;;;;4996437;27;81765;-63
2021/11/26 11:15:39;;;;;;;9.80;5.77;;;5.40;99.90;5.30;98883.00;;;;5001312;27;94676;-64